sensor_id;sensor_type;location;lat;lon;timestamp;pressure;altitude;pressure_sealevel;temperature;humidity
21203;BME280;10759;51.982;9.232;2023-09-30T00:00:22;101188.22;;;13.42;100.00
21203;BME280;10759;51.982;9.232;2023-09-30T00:02:50;101197.06;;;13.46;100.00
21203;BME280;10759;51.982;9.232;2023-09-30T00:05:19;101208.13;;;13.38;100.00
21203;BME280;10759;51.982;9.232;2023-09-30T00:07:47;101217.13;;;13.37;100.00
21203;BME280;10759;51.982;9.232;2023-09-30T00:10:15;101213.81;;;13.29;100.00
21203;BME280;10759;51.982;9.232;2023-09-30T00:12:44;101209.34;;;13.29;100.00
21203;BME280;10759;51.982;9.232;2023-09-30T00:15:12;101196.66;;;13.06;100.00
21203;BME280;10759;51.982;9.232;2023-09-30T00:17:42;101186.56;;;13.13;100.00
21203;BME280;10759;51.982;9.232;2023-09-30T00:20:11;101218.25;;;13.31;100.00
21203;BME280;10759;51.982;9.232;2023-09-30T00:22:41;101233.59;;;13.28;100.00
21203;BME280;10759;51.982;9.232;2023-09-30T00:25:10;101229.97;;;13.29;100.00
21203;BME280;10759;51.982;9.232;2023-09-30T00:27:38;101156.19;;;12.84;100.00
21203;BME280;10759;51.982;9.232;2023-09-30T00:30:07;101175.84;;;12.86;100.00
21203;BME280;10759;51.982;9.232;2023-09-30T00:32:35;101227.41;;;12.99;100.00
21203;BME280;10759;51.982;9.232;2023-09-30T00:35:06;101220.06;;;13.04;100.00
21203;BME280;10759;51.982;9.232;2023-09-30T00:37:38;101229.22;;;12.99;100.00
21203;BME280;10759;51.982;9.232;2023-09-30T00:40:08;101214.06;;;12.96;100.00
21203;BME280;10759;51.982;9.232;2023-09-30T00:42:38;101230.72;;;13.07;100.00
21203;BME280;10759;51.982;9.232;2023-09-30T00:45:08;101237.16;;;13.02;100.00
21203;BME280;10759;51.982;9.232;2023-09-30T00:47:37;101237.41;;;12.96;100.00
21203;BME280;10759;51.982;9.232;2023-09-30T00:50:07;101227.22;;;12.79;100.00
21203;BME280;10759;51.982;9.232;2023-09-30T00:52:40;101221.88;;;12.77;100.00
21203;BME280;10759;51.982;9.232;2023-09-30T00:55:09;101221.09;;;12.74;100.00
21203;BME280;10759;51.982;9.232;2023-09-30T00:57:38;101226.47;;;12.74;100.00
21203;BME280;10759;51.982;9.232;2023-09-30T01:00:08;101219.56;;;12.66;100.00
21203;BME280;10759;51.982;9.232;2023-09-30T01:02:39;101126.66;;;12.03;100.00
21203;BME280;10759;51.982;9.232;2023-09-30T01:05:10;101237.59;;;12.63;100.00
21203;BME280;10759;51.982;9.232;2023-09-30T01:07:39;101113.47;;;11.95;100.00
21203;BME280;10759;51.982;9.232;2023-09-30T01:10:08;101231.91;;;12.72;100.00
21203;BME280;10759;51.982;9.232;2023-09-30T01:12:36;101234.91;;;12.63;100.00
21203;BME280;10759;51.982;9.232;2023-09-30T01:15:05;101237.59;;;12.63;100.00
21203;BME280;10759;51.982;9.232;2023-09-30T01:17:34;101224.72;;;12.46;100.00
21203;BME280;10759;51.982;9.232;2023-09-30T01:20:04;101250.47;;;12.53;100.00
21203;BME280;10759;51.982;9.232;2023-09-30T01:22:35;101242.66;;;12.45;100.00
21203;BME280;10759;51.982;9.232;2023-09-30T01:25:04;101251.69;;;12.43;100.00
21203;BME280;10759;51.982;9.232;2023-09-30T01:27:33;101249.47;;;12.28;100.00
21203;BME280;10759;51.982;9.232;2023-09-30T01:30:01;101217.00;;;12.06;100.00
21203;BME280;10759;51.982;9.232;2023-09-30T01:32:31;101249.72;;;12.20;100.00
21203;BME280;10759;51.982;9.232;2023-09-30T01:34:59;101240.78;;;12.19;100.00
21203;BME280;10759;51.982;9.232;2023-09-30T01:37:28;101244.34;;;12.20;100.00
21203;BME280;10759;51.982;9.232;2023-09-30T01:39:58;101244.59;;;12.12;100.00
21203;BME280;10759;51.982;9.232;2023-09-30T01:42:27;101245.53;;;12.11;100.00
21203;BME280;10759;51.982;9.232;2023-09-30T01:44:55;101108.47;;;11.24;100.00
21203;BME280;10759;51.982;9.232;2023-09-30T01:47:25;101255.47;;;12.08;100.00
21203;BME280;10759;51.982;9.232;2023-09-30T01:49:54;101249.25;;;12.06;100.00
21203;BME280;10759;51.982;9.232;2023-09-30T01:52:23;101259.13;;;12.05;100.00
21203;BME280;10759;51.982;9.232;2023-09-30T01:54:52;101255.53;;;12.06;100.00
21203;BME280;10759;51.982;9.232;2023-09-30T01:57:22;101258.22;;;12.06;100.00
21203;BME280;10759;51.982;9.232;2023-09-30T01:59:51;101264.13;;;12.17;100.00
21203;BME280;10759;51.982;9.232;2023-09-30T02:02:19;101236.75;;;12.05;100.00
21203;BME280;10759;51.982;9.232;2023-09-30T02:04:47;101262.28;;;12.19;100.00
21203;BME280;10759;51.982;9.232;2023-09-30T02:07:16;101258.63;;;12.22;100.00
21203;BME280;10759;51.982;9.232;2023-09-30T02:09:44;101270.72;;;12.07;100.00
21203;BME280;10759;51.982;9.232;2023-09-30T02:12:12;101275.19;;;12.36;100.00
21203;BME280;10759;51.982;9.232;2023-09-30T02:14:42;101266.50;;;12.28;100.00
21203;BME280;10759;51.982;9.232;2023-09-30T02:17:13;101249.69;;;12.21;100.00
21203;BME280;10759;51.982;9.232;2023-09-30T02:19:41;101266.16;;;12.39;100.00
21203;BME280;10759;51.982;9.232;2023-09-30T02:22:10;101273.53;;;12.32;100.00
21203;BME280;10759;51.982;9.232;2023-09-30T02:24:39;101261.41;;;12.19;100.00
21203;BME280;10759;51.982;9.232;2023-09-30T02:27:07;101264.22;;;12.14;100.00
21203;BME280;10759;51.982;9.232;2023-09-30T02:29:36;101267.38;;;12.29;100.00
21203;BME280;10759;51.982;9.232;2023-09-30T02:32:06;101260.13;;;12.01;100.00
21203;BME280;10759;51.982;9.232;2023-09-30T02:34:34;101269.16;;;11.98;100.00
21203;BME280;10759;51.982;9.232;2023-09-30T02:37:02;101257.28;;;12.07;100.00
21203;BME280;10759;51.982;9.232;2023-09-30T02:39:31;101261.69;;;12.10;100.00
21203;BME280;10759;51.982;9.232;2023-09-30T02:42:01;101257.38;;;12.04;100.00
21203;BME280;10759;51.982;9.232;2023-09-30T02:44:29;101274.97;;;12.14;100.00
21203;BME280;10759;51.982;9.232;2023-09-30T02:46:58;101252.28;;;11.95;100.00
21203;BME280;10759;51.982;9.232;2023-09-30T02:49:27;101278.78;;;12.07;100.00
21203;BME280;10759;51.982;9.232;2023-09-30T02:51:56;101207.78;;;11.85;100.00
21203;BME280;10759;51.982;9.232;2023-09-30T02:54:24;101273.13;;;12.16;100.00
21203;BME280;10759;51.982;9.232;2023-09-30T02:56:53;101291.94;;;12.16;100.00
21203;BME280;10759;51.982;9.232;2023-09-30T02:59:22;101285.88;;;12.08;100.00
21203;BME280;10759;51.982;9.232;2023-09-30T03:01:50;101295.00;;;12.04;100.00
21203;BME280;10759;51.982;9.232;2023-09-30T03:04:18;101262.38;;;11.85;100.00
21203;BME280;10759;51.982;9.232;2023-09-30T03:06:49;101257.31;;;11.74;100.00
21203;BME280;10759;51.982;9.232;2023-09-30T03:09:17;101280.22;;;11.88;100.00
21203;BME280;10759;51.982;9.232;2023-09-30T03:11:47;101256.22;;;11.50;100.00
21203;BME280;10759;51.982;9.232;2023-09-30T03:14:16;101200.75;;;11.18;100.00
21203;BME280;10759;51.982;9.232;2023-09-30T03:16:45;101258.41;;;11.34;100.00
21203;BME280;10759;51.982;9.232;2023-09-30T03:19:14;101294.75;;;11.48;100.00
21203;BME280;10759;51.982;9.232;2023-09-30T03:21:43;101290.03;;;11.56;100.00
21203;BME280;10759;51.982;9.232;2023-09-30T03:24:13;101268.19;;;11.37;100.00
21203;BME280;10759;51.982;9.232;2023-09-30T03:26:43;101299.81;;;11.58;100.00
21203;BME280;10759;51.982;9.232;2023-09-30T03:29:11;101263.66;;;11.39;100.00
21203;BME280;10759;51.982;9.232;2023-09-30T03:31:41;101293.88;;;11.47;100.00
21203;BME280;10759;51.982;9.232;2023-09-30T03:34:10;101286.09;;;11.36;100.00
21203;BME280;10759;51.982;9.232;2023-09-30T03:36:38;101265.97;;;11.20;100.00
21203;BME280;10759;51.982;9.232;2023-09-30T03:39:08;101279.19;;;11.28;100.00
21203;BME280;10759;51.982;9.232;2023-09-30T03:41:42;101284.34;;;11.35;100.00
21203;BME280;10759;51.982;9.232;2023-09-30T03:44:11;101277.47;;;11.25;100.00
21203;BME280;10759;51.982;9.232;2023-09-30T03:46:39;101287.28;;;11.25;100.00
21203;BME280;10759;51.982;9.232;2023-09-30T03:49:07;101286.19;;;11.33;100.00
21203;BME280;10759;51.982;9.232;2023-09-30T03:51:36;101270.50;;;11.18;100.00
21203;BME280;10759;51.982;9.232;2023-09-30T03:54:05;101235.19;;;11.01;100.00
21203;BME280;10759;51.982;9.232;2023-09-30T03:56:33;101267.66;;;11.57;100.00
21203;BME280;10759;51.982;9.232;2023-09-30T03:59:04;101276.25;;;11.37;100.00
21203;BME280;10759;51.982;9.232;2023-09-30T04:01:33;101275.03;;;11.49;100.00
21203;BME280;10759;51.982;9.232;2023-09-30T04:04:02;101250.31;;;11.37;100.00
21203;BME280;10759;51.982;9.232;2023-09-30T04:06:32;101268.81;;;11.47;100.00
21203;BME280;10759;51.982;9.232;2023-09-30T04:09:00;101275.31;;;11.39;100.00
21203;BME280;10759;51.982;9.232;2023-09-30T04:11:29;101274.59;;;11.33;100.00
21203;BME280;10759;51.982;9.232;2023-09-30T04:13:57;101290.69;;;11.33;100.00
21203;BME280;10759;51.982;9.232;2023-09-30T04:16:27;101258.25;;;11.08;100.00
21203;BME280;10759;51.982;9.232;2023-09-30T04:18:57;101281.16;;;11.21;100.00
21203;BME280;10759;51.982;9.232;2023-09-30T04:21:26;101285.34;;;11.31;100.00
21203;BME280;10759;51.982;9.232;2023-09-30T04:23:57;101295.22;;;11.29;100.00
21203;BME280;10759;51.982;9.232;2023-09-30T04:26:25;101293.59;;;11.24;100.00
21203;BME280;10759;51.982;9.232;2023-09-30T04:28:55;101307.94;;;11.23;100.00
21203;BME280;10759;51.982;9.232;2023-09-30T04:31:27;101301.13;;;11.09;100.00
21203;BME280;10759;51.982;9.232;2023-09-30T04:33:56;101300.34;;;11.06;100.00
21203;BME280;10759;51.982;9.232;2023-09-30T04:36:31;101287.16;;;10.96;100.00
21203;BME280;10759;51.982;9.232;2023-09-30T04:39:02;101290.75;;;10.95;100.00
21203;BME280;10759;51.982;9.232;2023-09-30T04:41:32;101300.56;;;10.96;100.00
21203;BME280;10759;51.982;9.232;2023-09-30T04:44:00;101302.19;;;11.02;100.00
21203;BME280;10759;51.982;9.232;2023-09-30T04:46:30;101308.38;;;11.06;100.00
21203;BME280;10759;51.982;9.232;2023-09-30T04:48:59;101302.84;;;11.12;100.00
21203;BME280;10759;51.982;9.232;2023-09-30T04:51:30;101298.38;;;11.12;100.00
21203;BME280;10759;51.982;9.232;2023-09-30T04:53:59;101302.19;;;11.02;100.00
21203;BME280;10759;51.982;9.232;2023-09-30T04:56:29;101300.22;;;11.10;100.00
21203;BME280;10759;51.982;9.232;2023-09-30T04:58:57;101276.41;;;10.96;100.00
21203;BME280;10759;51.982;9.232;2023-09-30T05:01:25;101297.78;;;11.00;100.00
21203;BME280;10759;51.982;9.232;2023-09-30T05:03:56;101299.63;;;10.98;100.00
21203;BME280;10759;51.982;9.232;2023-09-30T05:06:31;101264.47;;;10.74;100.00
21203;BME280;10759;51.982;9.232;2023-09-30T05:09:09;101301.53;;;10.92;100.00
21203;BME280;10759;51.982;9.232;2023-09-30T05:11:44;101303.34;;;10.92;100.00
21203;BME280;10759;51.982;9.232;2023-09-30T05:14:12;101297.03;;;10.94;100.00
21203;BME280;10759;51.982;9.232;2023-09-30T05:16:43;101275.97;;;10.78;100.00
21203;BME280;10759;51.982;9.232;2023-09-30T05:19:16;101314.13;;;10.90;100.00
21203;BME280;10759;51.982;9.232;2023-09-30T05:21:46;101202.22;;;10.24;100.00
21203;BME280;10759;51.982;9.232;2023-09-30T05:24:14;101308.81;;;10.87;100.00
21203;BME280;10759;51.982;9.232;2023-09-30T05:26:46;101309.56;;;10.94;100.00
21203;BME280;10759;51.982;9.232;2023-09-30T05:29:21;101271.56;;;10.75;100.00
21203;BME280;10759;51.982;9.232;2023-09-30T05:31:50;101319.03;;;11.09;100.00
21203;BME280;10759;51.982;9.232;2023-09-30T05:34:20;101323.44;;;11.11;100.00
21203;BME280;10759;51.982;9.232;2023-09-30T05:36:49;101327.03;;;11.10;100.00
21203;BME280;10759;51.982;9.232;2023-09-30T05:39:18;101325.91;;;11.19;100.00
21203;BME280;10759;51.982;9.232;2023-09-30T05:41:48;101323.09;;;11.25;100.00
21203;BME280;10759;51.982;9.232;2023-09-30T05:44:16;101322.81;;;11.34;100.00
21203;BME280;10759;51.982;9.232;2023-09-30T05:46:45;101330.81;;;11.37;100.00
21203;BME280;10759;51.982;9.232;2023-09-30T05:49:13;101327.38;;;11.32;100.00
21203;BME280;10759;51.982;9.232;2023-09-30T05:51:43;101333.41;;;11.41;100.00
21203;BME280;10759;51.982;9.232;2023-09-30T05:54:12;101323.72;;;11.35;100.00
21203;BME280;10759;51.982;9.232;2023-09-30T05:56:41;101330.75;;;11.39;100.00
21203;BME280;10759;51.982;9.232;2023-09-30T05:59:10;101336.94;;;11.43;100.00
21203;BME280;10759;51.982;9.232;2023-09-30T06:01:38;101318.25;;;11.39;100.00
21203;BME280;10759;51.982;9.232;2023-09-30T06:04:08;101333.94;;;11.55;100.00
21203;BME280;10759;51.982;9.232;2023-09-30T06:06:36;101341.91;;;11.56;100.00
21203;BME280;10759;51.982;9.232;2023-09-30T06:09:07;101350.78;;;11.60;100.00
21203;BME280;10759;51.982;9.232;2023-09-30T06:11:35;101353.38;;;11.63;100.00
21203;BME280;10759;51.982;9.232;2023-09-30T06:14:04;101314.50;;;11.45;100.00
21203;BME280;10759;51.982;9.232;2023-09-30T06:16:34;101356.69;;;11.74;100.00
21203;BME280;10759;51.982;9.232;2023-09-30T06:19:02;101363.66;;;11.81;100.00
21203;BME280;10759;51.982;9.232;2023-09-30T06:21:30;101340.84;;;11.64;100.00
21203;BME280;10759;51.982;9.232;2023-09-30T06:24:01;101369.63;;;11.93;100.00
21203;BME280;10759;51.982;9.232;2023-09-30T06:26:32;101367.66;;;11.99;100.00
21203;BME280;10759;51.982;9.232;2023-09-30T06:29:00;101381.03;;;12.01;100.00
21203;BME280;10759;51.982;9.232;2023-09-30T06:31:29;101366.59;;;12.05;100.00
21203;BME280;10759;51.982;9.232;2023-09-30T06:33:58;101354.88;;;12.08;100.00
21203;BME280;10759;51.982;9.232;2023-09-30T06:36:27;101350.88;;;11.91;100.00
21203;BME280;10759;51.982;9.232;2023-09-30T06:38:56;101369.41;;;12.00;100.00
21203;BME280;10759;51.982;9.232;2023-09-30T06:41:25;101370.72;;;11.84;100.00
21203;BME280;10759;51.982;9.232;2023-09-30T06:43:55;101377.66;;;11.93;100.00
21203;BME280;10759;51.982;9.232;2023-09-30T06:46:24;101380.75;;;12.10;100.00
21203;BME280;10759;51.982;9.232;2023-09-30T06:48:52;101366.31;;;12.14;100.00
21203;BME280;10759;51.982;9.232;2023-09-30T06:51:21;101382.72;;;12.36;100.00
21203;BME280;10759;51.982;9.232;2023-09-30T06:53:49;101335.94;;;12.12;100.00
21203;BME280;10759;51.982;9.232;2023-09-30T06:56:18;101378.94;;;12.42;100.00
21203;BME280;10759;51.982;9.232;2023-09-30T06:58:46;101301.09;;;12.09;100.00
21203;BME280;10759;51.982;9.232;2023-09-30T07:01:17;101399.91;;;12.90;100.00
21203;BME280;10759;51.982;9.232;2023-09-30T07:03:45;101405.63;;;13.07;100.00
21203;BME280;10759;51.982;9.232;2023-09-30T07:06:22;101400.03;;;13.14;100.00
21203;BME280;10759;51.982;9.232;2023-09-30T07:08:51;101413.84;;;13.31;100.00
21203;BME280;10759;51.982;9.232;2023-09-30T07:11:27;101385.78;;;13.38;100.00
21203;BME280;10759;51.982;9.232;2023-09-30T07:13:55;101376.69;;;13.42;100.00
21203;BME280;10759;51.982;9.232;2023-09-30T07:16:26;101391.97;;;13.68;100.00
21203;BME280;10759;51.982;9.232;2023-09-30T07:18:54;101401.78;;;13.69;100.00
21203;BME280;10759;51.982;9.232;2023-09-30T07:21:23;101410.34;;;13.56;100.00
21203;BME280;10759;51.982;9.232;2023-09-30T07:23:52;101400.63;;;13.51;100.00
21203;BME280;10759;51.982;9.232;2023-09-30T07:26:23;101417.53;;;13.55;100.00
21203;BME280;10759;51.982;9.232;2023-09-30T07:28:52;101417.13;;;13.67;100.00
21203;BME280;10759;51.982;9.232;2023-09-30T07:31:21;101416.41;;;13.87;100.00
21203;BME280;10759;51.982;9.232;2023-09-30T07:33:52;101419.13;;;13.87;100.00
21203;BME280;10759;51.982;9.232;2023-09-30T07:36:20;101422.81;;;13.85;100.00
21203;BME280;10759;51.982;9.232;2023-09-30T07:38:49;101430.97;;;13.83;100.00
21203;BME280;10759;51.982;9.232;2023-09-30T07:41:17;101437.28;;;14.07;100.00
21203;BME280;10759;51.982;9.232;2023-09-30T07:43:45;101434.31;;;14.40;100.00
21203;BME280;10759;51.982;9.232;2023-09-30T07:46:13;101414.44;;;14.43;100.00
21203;BME280;10759;51.982;9.232;2023-09-30T07:48:42;101429.06;;;14.60;100.00
21203;BME280;10759;51.982;9.232;2023-09-30T07:51:12;101434.72;;;14.76;100.00
21203;BME280;10759;51.982;9.232;2023-09-30T07:53:42;101384.78;;;14.66;100.00
21203;BME280;10759;51.982;9.232;2023-09-30T07:56:11;101443.47;;;14.83;100.00
21203;BME280;10759;51.982;9.232;2023-09-30T07:58:39;101444.13;;;14.90;100.00
21203;BME280;10759;51.982;9.232;2023-09-30T08:01:07;101448.47;;;15.16;100.00
21203;BME280;10759;51.982;9.232;2023-09-30T08:03:36;101430.53;;;15.15;100.00
21203;BME280;10759;51.982;9.232;2023-09-30T08:06:07;101394.09;;;15.03;100.00
21203;BME280;10759;51.982;9.232;2023-09-30T08:08:37;101443.22;;;15.35;100.00
21203;BME280;10759;51.982;9.232;2023-09-30T08:11:05;101443.06;;;15.38;100.00
21203;BME280;10759;51.982;9.232;2023-09-30T08:13:33;101424.19;;;15.38;100.00
21203;BME280;10759;51.982;9.232;2023-09-30T08:16:02;101437.66;;;15.60;100.00
21203;BME280;10759;51.982;9.232;2023-09-30T08:18:30;101433.03;;;15.63;100.00
21203;BME280;10759;51.982;9.232;2023-09-30T08:20:59;101434.03;;;15.83;100.00
21203;BME280;10759;51.982;9.232;2023-09-30T08:23:27;101435.44;;;15.92;100.00
21203;BME280;10759;51.982;9.232;2023-09-30T08:25:59;101437.31;;;15.89;100.00
21203;BME280;10759;51.982;9.232;2023-09-30T08:28:27;101445.91;;;15.99;100.00
21203;BME280;10759;51.982;9.232;2023-09-30T08:30:55;101350.81;;;15.49;100.00
21203;BME280;10759;51.982;9.232;2023-09-30T08:33:29;101462.81;;;16.04;100.00
21203;BME280;10759;51.982;9.232;2023-09-30T08:36:02;101453.53;;;15.89;100.00
21203;BME280;10759;51.982;9.232;2023-09-30T08:38:35;101467.06;;;15.89;100.00
21203;BME280;10759;51.982;9.232;2023-09-30T08:41:04;101464.97;;;15.96;100.00
21203;BME280;10759;51.982;9.232;2023-09-30T08:43:37;101452.13;;;15.81;100.00
21203;BME280;10759;51.982;9.232;2023-09-30T08:46:06;101477.09;;;16.08;100.00
21203;BME280;10759;51.982;9.232;2023-09-30T08:48:35;101386.59;;;15.54;100.00
21203;BME280;10759;51.982;9.232;2023-09-30T08:51:03;101465.94;;;16.16;100.00
21203;BME280;10759;51.982;9.232;2023-09-30T08:53:32;101386.75;;;15.73;100.00
21203;BME280;10759;51.982;9.232;2023-09-30T08:56:01;101469.13;;;16.25;100.00
21203;BME280;10759;51.982;9.232;2023-09-30T08:58:36;101454.84;;;16.22;100.00
21203;BME280;10759;51.982;9.232;2023-09-30T09:01:05;101460.41;;;16.39;100.00
21203;BME280;10759;51.982;9.232;2023-09-30T09:03:36;101480.78;;;16.46;100.00
21203;BME280;10759;51.982;9.232;2023-09-30T09:06:05;101479.44;;;16.57;100.00
21203;BME280;10759;51.982;9.232;2023-09-30T09:08:34;101476.19;;;16.69;100.00
21203;BME280;10759;51.982;9.232;2023-09-30T09:11:02;101469.72;;;16.92;100.00
21203;BME280;10759;51.982;9.232;2023-09-30T09:13:46;101460.19;;;17.02;100.00
21203;BME280;10759;51.982;9.232;2023-09-30T09:16:19;101464.13;;;16.95;100.00
21203;BME280;10759;51.982;9.232;2023-09-30T09:18:48;101465.75;;;17.18;100.00
21203;BME280;10759;51.982;9.232;2023-09-30T09:21:19;101470.22;;;17.19;100.00
21203;BME280;10759;51.982;9.232;2023-09-30T09:23:51;101471.28;;;17.34;100.00
21203;BME280;10759;51.982;9.232;2023-09-30T09:26:25;101463.59;;;17.44;100.00
21203;BME280;10759;51.982;9.232;2023-09-30T09:28:58;101465.31;;;17.64;100.00
21203;BME280;10759;51.982;9.232;2023-09-30T09:31:28;101465.97;;;17.50;99.01
21203;BME280;10759;51.982;9.232;2023-09-30T09:33:59;101455.47;;;17.44;99.97
21203;BME280;10759;51.982;9.232;2023-09-30T09:36:39;101468.59;;;17.70;100.00
21203;BME280;10759;51.982;9.232;2023-09-30T09:39:07;101469.91;;;17.98;100.00
21203;BME280;10759;51.982;9.232;2023-09-30T09:41:49;101458.78;;;18.04;97.49
21203;BME280;10759;51.982;9.232;2023-09-30T09:44:21;101469.91;;;17.62;94.21
21203;BME280;10759;51.982;9.232;2023-09-30T09:46:50;101469.66;;;17.49;95.78
21203;BME280;10759;51.982;9.232;2023-09-30T09:49:19;101465.94;;;17.32;97.09
21203;BME280;10759;51.982;9.232;2023-09-30T09:51:48;101447.16;;;17.10;99.03
21203;BME280;10759;51.982;9.232;2023-09-30T09:54:17;101477.31;;;17.22;98.47
21203;BME280;10759;51.982;9.232;2023-09-30T09:56:45;101477.19;;;17.06;100.00
21203;BME280;10759;51.982;9.232;2023-09-30T09:59:13;101371.34;;;16.35;100.00
21203;BME280;10759;51.982;9.232;2023-09-30T10:01:43;101456.81;;;16.78;100.00
21203;BME280;10759;51.982;9.232;2023-09-30T10:04:12;101469.75;;;16.90;100.00
21203;BME280;10759;51.982;9.232;2023-09-30T10:06:44;101460.19;;;17.02;100.00
21203;BME280;10759;51.982;9.232;2023-09-30T10:09:16;101456.03;;;17.14;98.22
21203;BME280;10759;51.982;9.232;2023-09-30T10:11:47;101463.63;;;17.25;99.19
21203;BME280;10759;51.982;9.232;2023-09-30T10:14:29;101463.22;;;17.32;98.76
21203;BME280;10759;51.982;9.232;2023-09-30T10:17:01;101464.84;;;17.36;95.96
21203;BME280;10759;51.982;9.232;2023-09-30T10:19:30;101451.09;;;17.41;93.66
21203;BME280;10759;51.982;9.232;2023-09-30T10:22:21;101459.25;;;17.58;94.26
21203;BME280;10759;51.982;9.232;2023-09-30T10:24:54;101356.69;;;17.14;94.43
21203;BME280;10759;51.982;9.232;2023-09-30T10:27:36;101440.13;;;17.62;93.20
21203;BME280;10759;51.982;9.232;2023-09-30T10:30:11;101440.84;;;17.65;94.14
21203;BME280;10759;51.982;9.232;2023-09-30T10:33:09;101455.94;;;17.52;92.57
21203;BME280;10759;51.982;9.232;2023-09-30T10:35:47;101449.38;;;17.57;96.45
21203;BME280;10759;51.982;9.232;2023-09-30T10:38:37;101453.78;;;17.77;94.46
21203;BME280;10759;51.982;9.232;2023-09-30T10:41:07;101443.81;;;17.78;92.68
21203;BME280;10759;51.982;9.232;2023-09-30T10:43:38;101463.84;;;17.93;92.96
21203;BME280;10759;51.982;9.232;2023-09-30T10:46:30;101472.47;;;18.01;89.75
21203;BME280;10759;51.982;9.232;2023-09-30T10:49:31;101477.88;;;18.01;90.14
21203;BME280;10759;51.982;9.232;2023-09-30T10:52:01;101461.91;;;17.77;88.67
21203;BME280;10759;51.982;9.232;2023-09-30T10:54:30;101451.88;;;17.79;87.90
21203;BME280;10759;51.982;9.232;2023-09-30T10:56:59;101450.94;;;17.80;91.43
21203;BME280;10759;51.982;9.232;2023-09-30T10:59:31;101442.19;;;17.74;85.94
21203;BME280;10759;51.982;9.232;2023-09-30T11:02:02;101449.66;;;17.88;84.26
21203;BME280;10759;51.982;9.232;2023-09-30T11:04:45;101446.22;;;17.84;86.30
21203;BME280;10759;51.982;9.232;2023-09-30T11:07:19;101400.50;;;17.76;83.66
21203;BME280;10759;51.982;9.232;2023-09-30T11:09:50;101373.63;;;17.72;84.71
21203;BME280;10759;51.982;9.232;2023-09-30T11:12:18;101437.53;;;18.12;82.77
21203;BME280;10759;51.982;9.232;2023-09-30T11:14:46;101435.91;;;18.26;83.33
21203;BME280;10759;51.982;9.232;2023-09-30T11:17:22;101422.59;;;18.21;85.22
21203;BME280;10759;51.982;9.232;2023-09-30T11:19:52;101453.16;;;18.24;84.34
21203;BME280;10759;51.982;9.232;2023-09-30T11:22:21;101444.47;;;18.00;85.12
21203;BME280;10759;51.982;9.232;2023-09-30T11:24:49;101419.19;;;17.83;86.58
21203;BME280;10759;51.982;9.232;2023-09-30T11:27:22;101459.88;;;18.00;83.82
21203;BME280;10759;51.982;9.232;2023-09-30T11:29:54;101449.50;;;17.91;84.32
21203;BME280;10759;51.982;9.232;2023-09-30T11:32:23;101448.50;;;17.74;81.21
21203;BME280;10759;51.982;9.232;2023-09-30T11:34:55;101358.53;;;17.14;81.91
21203;BME280;10759;51.982;9.232;2023-09-30T11:37:30;101438.59;;;17.56;83.23
21203;BME280;10759;51.982;9.232;2023-09-30T11:40:09;101434.50;;;17.47;83.13
21203;BME280;10759;51.982;9.232;2023-09-30T11:42:37;101434.25;;;17.34;83.25
21203;BME280;10759;51.982;9.232;2023-09-30T11:45:19;101436.19;;;17.50;83.70
21203;BME280;10759;51.982;9.232;2023-09-30T11:47:49;101437.75;;;17.73;82.28
21203;BME280;10759;51.982;9.232;2023-09-30T11:50:19;101432.91;;;17.79;82.53
21203;BME280;10759;51.982;9.232;2023-09-30T11:52:47;101429.72;;;17.89;85.29
21203;BME280;10759;51.982;9.232;2023-09-30T11:55:16;101417.53;;;17.97;82.35
21203;BME280;10759;51.982;9.232;2023-09-30T11:57:46;101425.69;;;18.31;84.73
21203;BME280;10759;51.982;9.232;2023-09-30T12:00:14;101431.69;;;18.53;82.54
21203;BME280;10759;51.982;9.232;2023-09-30T12:02:44;101428.31;;;18.65;81.61
21203;BME280;10759;51.982;9.232;2023-09-30T12:05:12;101433.34;;;18.73;77.91
21203;BME280;10759;51.982;9.232;2023-09-30T12:07:42;101435.50;;;18.66;75.61
21203;BME280;10759;51.982;9.232;2023-09-30T12:10:11;101432.97;;;18.63;74.68
21203;BME280;10759;51.982;9.232;2023-09-30T12:12:41;101418.78;;;18.58;75.61
21203;BME280;10759;51.982;9.232;2023-09-30T12:15:11;101435.50;;;18.33;76.53
21203;BME280;10759;51.982;9.232;2023-09-30T12:17:40;101433.94;;;18.29;77.58
21203;BME280;10759;51.982;9.232;2023-09-30T12:20:09;101423.81;;;18.15;78.88
21203;BME280;10759;51.982;9.232;2023-09-30T12:22:42;101351.06;;;17.71;78.86
21203;BME280;10759;51.982;9.232;2023-09-30T12:25:10;101416.53;;;18.16;80.97
21203;BME280;10759;51.982;9.232;2023-09-30T12:27:38;101383.56;;;17.90;81.80
21203;BME280;10759;51.982;9.232;2023-09-30T12:30:08;101406.91;;;18.10;80.11
21203;BME280;10759;51.982;9.232;2023-09-30T12:32:36;101392.38;;;18.11;77.42
21203;BME280;10759;51.982;9.232;2023-09-30T12:35:07;101285.88;;;17.39;78.40
21203;BME280;10759;51.982;9.232;2023-09-30T12:37:37;101402.09;;;18.15;78.15
21203;BME280;10759;51.982;9.232;2023-09-30T12:40:08;101395.38;;;18.22;76.14
21203;BME280;10759;51.982;9.232;2023-09-30T12:42:38;101389.50;;;18.14;77.10
21203;BME280;10759;51.982;9.232;2023-09-30T12:45:07;101330.25;;;17.72;77.03
21203;BME280;10759;51.982;9.232;2023-09-30T12:47:35;101362.97;;;17.86;78.22
21203;BME280;10759;51.982;9.232;2023-09-30T12:50:04;101384.19;;;17.95;78.11
21203;BME280;10759;51.982;9.232;2023-09-30T12:52:32;101382.91;;;17.85;80.51
21203;BME280;10759;51.982;9.232;2023-09-30T12:55:00;101375.25;;;17.93;81.53
21203;BME280;10759;51.982;9.232;2023-09-30T12:57:30;101381.94;;;18.03;81.00